Time;durP1;ratioP1;P1;durP2;ratioP2;P2;SDS_P1;SDS_P2;PMS_P1;PMS_P2;Temp;Humidity;BMP_temperature;BMP_pressure;BME280_temperature;BME280_humidity;BME280_pressure;Samples;Min_cycle;Max_cycle;Signal;HPM_P1;HPM_P2
2021/06/25 00:02:19;;;;;;;57.63;18.98;;;16.10;99.90;;;;;;5054715;28;20459;-65
2021/06/25 00:04:46;;;;;;;66.00;19.30;;;16.10;99.90;;;;;;5056364;28;20056;-65
2021/06/25 00:07:13;;;;;;;56.40;19.75;;;16.00;99.90;;;;;;5055849;28;20189;-65
2021/06/25 00:09:40;;;;;;;78.78;19.83;;;16.00;99.90;;;;;;5054975;28;20052;-65
2021/06/25 00:12:09;;;;;;;46.10;18.77;;;16.00;99.90;;;;;;5056198;28;20085;-65
2021/06/25 00:14:36;;;;;;;62.08;20.10;;;16.10;99.90;;;;;;5054474;28;20048;-65
2021/06/25 00:17:05;;;;;;;60.08;19.55;;;16.00;99.90;;;;;;5056501;28;20055;-65
2021/06/25 00:19:32;;;;;;;68.88;19.83;;;16.00;99.90;;;;;;5054713;28;20480;-65
2021/06/25 00:21:59;;;;;;;61.28;20.27;;;16.00;99.90;;;;;;5055650;28;20102;-65
2021/06/25 00:24:27;;;;;;;72.80;20.50;;;16.00;99.90;;;;;;5057424;28;20676;-65
2021/06/25 00:26:54;;;;;;;87.43;21.73;;;16.00;99.90;;;;;;5053691;28;20507;-65
2021/06/25 00:29:22;;;;;;;70.00;21.50;;;16.00;99.90;;;;;;5052839;28;20136;-65
2021/06/25 00:31:50;;;;;;;64.30;19.23;;;16.00;99.90;;;;;;5056657;28;20513;-65
2021/06/25 00:34:18;;;;;;;65.60;20.98;;;16.00;99.90;;;;;;5056050;28;20641;-65
2021/06/25 00:36:45;;;;;;;65.07;20.98;;;16.10;99.90;;;;;;5055520;28;20132;-65
2021/06/25 00:39:13;;;;;;;67.65;21.90;;;16.10;99.90;;;;;;5054718;28;20109;-64
2021/06/25 00:41:40;;;;;;;74.07;23.20;;;16.20;99.90;;;;;;5053404;28;20048;-64
2021/06/25 00:44:14;;;;;;;60.72;20.38;;;16.10;99.90;;;;;;5055000;28;20143;-65
2021/06/25 00:46:41;;;;;;;82.82;22.35;;;16.10;99.90;;;;;;5056182;28;20093;-65
2021/06/25 00:49:08;;;;;;;90.15;22.90;;;16.20;99.90;;;;;;5053023;28;20110;-65
2021/06/25 00:51:37;;;;;;;79.07;23.67;;;16.10;99.90;;;;;;5055261;28;20052;-65
2021/06/25 00:54:05;;;;;;;93.63;23.77;;;16.10;99.90;;;;;;5052488;28;20462;-65
2021/06/25 00:56:32;;;;;;;119.88;25.55;;;16.00;99.90;;;;;;5057667;28;20048;-65
2021/06/25 00:59:00;;;;;;;76.80;23.48;;;16.00;99.90;;;;;;5055128;28;20137;-65
2021/06/25 01:01:27;;;;;;;74.90;24.23;;;16.10;99.90;;;;;;5057345;28;20052;-65
2021/06/25 01:03:54;;;;;;;69.93;24.33;;;16.20;99.90;;;;;;5056317;28;20079;-65
2021/06/25 01:06:21;;;;;;;62.25;23.40;;;16.20;99.90;;;;;;5053866;28;20048;-64
2021/06/25 01:08:49;;;;;;;68.13;23.80;;;16.30;99.90;;;;;;5052419;28;20044;-64
2021/06/25 01:11:18;;;;;;;67.03;24.02;;;16.20;99.90;;;;;;5053701;28;20059;-64
2021/06/25 01:13:45;;;;;;;60.60;23.02;;;16.20;99.90;;;;;;5055164;28;20481;-64
2021/06/25 01:16:12;;;;;;;61.30;24.25;;;16.20;99.90;;;;;;5057676;28;20048;-65
2021/06/25 01:18:39;;;;;;;59.55;21.73;;;16.20;99.90;;;;;;5054790;28;20052;-64
2021/06/25 01:21:07;;;;;;;58.25;21.50;;;16.30;99.90;;;;;;5057171;28;20052;-64
2021/06/25 01:23:38;;;;;;;69.35;23.50;;;16.30;99.90;;;;;;5054400;28;20044;-65
2021/06/25 01:26:05;;;;;;;65.10;23.58;;;16.30;99.90;;;;;;5053035;28;20143;-65
2021/06/25 01:28:33;;;;;;;67.47;21.80;;;16.20;99.90;;;;;;5056476;28;20044;-64
2021/06/25 01:31:01;;;;;;;54.90;20.48;;;16.20;99.90;;;;;;5053980;28;20060;-64
2021/06/25 01:33:29;;;;;;;56.97;22.17;;;16.30;99.90;;;;;;5056104;28;20462;-64
2021/06/25 01:35:57;;;;;;;64.93;21.80;;;16.30;99.90;;;;;;5056780;28;20050;-64
2021/06/25 01:38:26;;;;;;;62.85;23.10;;;16.30;99.90;;;;;;5052330;28;20088;-65
2021/06/25 01:40:54;;;;;;;71.50;23.83;;;16.40;99.90;;;;;;5053807;28;21094;-65
2021/06/25 01:43:22;;;;;;;71.13;23.67;;;16.20;99.90;;;;;;5048505;28;20566;-64
2021/06/25 01:45:50;;;;;;;82.43;25.55;;;16.20;99.90;;;;;;5051131;28;20044;-64
2021/06/25 01:48:17;;;;;;;61.13;23.55;;;16.20;99.90;;;;;;5055421;28;20089;-64
2021/06/25 01:50:45;;;;;;;59.80;23.52;;;16.30;99.90;;;;;;5049983;28;20063;-64
2021/06/25 01:53:13;;;;;;;67.75;25.08;;;16.30;99.90;;;;;;5055390;28;20056;-64
2021/06/25 01:55:44;;;;;;;66.18;26.27;;;16.20;99.90;;;;;;5054479;28;20377;-64
2021/06/25 01:58:12;;;;;;;69.13;25.88;;;16.20;99.90;;;;;;5050381;28;20052;-64
2021/06/25 02:00:41;;;;;;;69.57;27.08;;;16.20;99.90;;;;;;5054658;28;20044;-65
2021/06/25 02:03:08;;;;;;;66.15;25.92;;;16.20;99.90;;;;;;5054049;28;20048;-64
2021/06/25 02:05:35;;;;;;;72.90;28.52;;;16.30;99.90;;;;;;5053091;28;20628;-64
2021/06/25 02:08:02;;;;;;;70.68;29.15;;;16.20;99.90;;;;;;5052167;28;20060;-64
2021/06/25 02:10:30;;;;;;;75.22;30.17;;;16.20;99.90;;;;;;5056842;28;20052;-64
2021/06/25 02:12:58;;;;;;;74.05;28.77;;;16.30;99.90;;;;;;5050934;28;20144;-64
2021/06/25 02:15:25;;;;;;;91.25;33.55;;;16.30;99.90;;;;;;5054298;28;20134;-64
2021/06/25 02:17:52;;;;;;;79.13;28.70;;;16.30;99.90;;;;;;5053689;28;20044;-65
2021/06/25 02:20:19;;;;;;;72.15;30.38;;;16.30;99.90;;;;;;5052804;28;20347;-65
2021/06/25 02:22:46;;;;;;;67.82;27.55;;;16.30;99.90;;;;;;5056676;28;20098;-64
2021/06/25 02:25:14;;;;;;;69.78;28.80;;;16.30;99.90;;;;;;5059510;28;20047;-64
2021/06/25 02:27:41;;;;;;;71.18;27.55;;;16.30;99.90;;;;;;5055850;28;20500;-64
2021/06/25 02:30:15;;;;;;;73.47;29.15;;;16.30;99.90;;;;;;5055740;28;21014;-65
2021/06/25 02:32:42;;;;;;;71.45;27.98;;;16.30;99.90;;;;;;5058857;28;20051;-64
2021/06/25 02:35:10;;;;;;;52.22;24.52;;;16.20;99.90;;;;;;5055407;28;20098;-64
2021/06/25 02:37:37;;;;;;;59.40;26.35;;;16.20;99.90;;;;;;5054897;28;21147;-64
2021/06/25 02:40:06;;;;;;;58.78;26.77;;;16.20;99.90;;;;;;5057878;28;20098;-64
2021/06/25 02:42:33;;;;;;;60.00;26.67;;;16.10;99.90;;;;;;5058282;28;20880;-64
2021/06/25 02:45:00;;;;;;;62.45;27.02;;;16.10;99.90;;;;;;5058335;28;20105;-64
2021/06/25 02:47:29;;;;;;;66.80;27.77;;;16.10;99.90;;;;;;5057380;28;20108;-67
2021/06/25 02:49:56;;;;;;;60.70;25.88;;;16.10;99.90;;;;;;5057364;28;20056;-65
2021/06/25 02:52:23;;;;;;;55.78;24.55;;;16.20;99.90;;;;;;5056587;28;20463;-65
2021/06/25 02:54:50;;;;;;;49.92;24.00;;;16.20;99.90;;;;;;5021542;28;20108;-65
2021/06/25 02:57:17;;;;;;;52.65;24.15;;;16.10;99.90;;;;;;5056269;28;20060;-64
2021/06/25 02:59:44;;;;;;;50.47;22.90;;;16.10;99.90;;;;;;5056872;28;21713;-64
2021/06/25 03:02:11;;;;;;;42.53;21.08;;;16.10;99.90;;;;;;5056444;28;20137;-64
2021/06/25 03:04:39;;;;;;;43.55;19.98;;;16.10;99.90;;;;;;5056802;28;20716;-65
2021/06/25 03:07:06;;;;;;;46.13;20.35;;;16.10;99.90;;;;;;5058069;28;20517;-64
2021/06/25 03:09:33;;;;;;;40.25;19.98;;;16.20;99.90;;;;;;5056280;28;20050;-65
2021/06/25 03:12:00;;;;;;;42.55;19.17;;;16.10;99.90;;;;;;5055465;28;20580;-64
2021/06/25 03:14:27;;;;;;;49.42;19.45;;;16.10;99.90;;;;;;5055702;28;20136;-64
2021/06/25 03:16:54;;;;;;;44.33;19.17;;;16.10;99.90;;;;;;5057542;28;20044;-64
2021/06/25 03:19:21;;;;;;;46.85;20.80;;;16.10;99.90;;;;;;5055311;28;20052;-65
2021/06/25 03:21:50;;;;;;;49.67;19.55;;;16.10;99.90;;;;;;5055319;28;20136;-65
2021/06/25 03:24:17;;;;;;;44.47;20.58;;;16.00;99.90;;;;;;5053734;28;20047;-65
2021/06/25 03:26:44;;;;;;;46.80;19.30;;;16.00;99.90;;;;;;5056408;28;20416;-66
2021/06/25 03:29:11;;;;;;;51.47;20.83;;;16.00;99.90;;;;;;5052735;28;20052;-65
2021/06/25 03:31:38;;;;;;;43.22;19.85;;;16.10;99.90;;;;;;5056029;28;20048;-65
2021/06/25 03:34:05;;;;;;;46.92;21.35;;;16.20;99.90;;;;;;5056828;28;20052;-65
2021/06/25 03:36:32;;;;;;;47.90;19.25;;;16.20;99.90;;;;;;5054765;28;21013;-65
2021/06/25 03:39:01;;;;;;;41.67;19.52;;;16.20;99.90;;;;;;5056896;28;20064;-65
2021/06/25 03:41:28;;;;;;;46.15;20.17;;;16.20;99.90;;;;;;5057286;28;20059;-64
2021/06/25 03:43:55;;;;;;;40.00;19.30;;;16.30;99.90;;;;;;5058461;28;20045;-65
2021/06/25 03:46:22;;;;;;;41.45;19.35;;;16.30;99.90;;;;;;5055623;28;20048;-65
2021/06/25 03:48:49;;;;;;;41.30;17.90;;;16.30;99.90;;;;;;5054013;28;20076;-64
2021/06/25 03:51:17;;;;;;;42.38;18.70;;;16.30;99.90;;;;;;5054174;28;20053;-64
2021/06/25 03:53:44;;;;;;;38.08;18.67;;;16.30;99.90;;;;;;5055282;28;20145;-65
2021/06/25 03:56:12;;;;;;;34.75;18.73;;;16.40;99.90;;;;;;5056471;28;20060;-64
2021/06/25 03:58:40;;;;;;;43.13;19.40;;;16.40;99.90;;;;;;5058135;28;20084;-65
2021/06/25 04:01:08;;;;;;;41.70;21.00;;;16.50;99.90;;;;;;5057885;28;20044;-64
2021/06/25 04:03:35;;;;;;;38.58;20.23;;;16.50;99.90;;;;;;5055262;28;20511;-64
2021/06/25 04:06:02;;;;;;;41.88;20.63;;;16.40;99.90;;;;;;5057937;28;20113;-64
2021/06/25 04:08:30;;;;;;;41.80;20.08;;;16.50;99.90;;;;;;5053256;28;20048;-64
2021/06/25 04:10:58;;;;;;;39.15;19.88;;;16.40;99.90;;;;;;5059624;28;20106;-64
2021/06/25 04:13:27;;;;;;;40.05;19.63;;;16.50;99.90;;;;;;5057084;28;20532;-64
2021/06/25 04:15:55;;;;;;;36.75;19.13;;;16.40;99.90;;;;;;5053093;28;20043;-64
2021/06/25 04:18:22;;;;;;;36.08;20.20;;;16.40;99.90;;;;;;5051416;28;20055;-64
2021/06/25 04:20:49;;;;;;;40.42;20.38;;;16.50;99.90;;;;;;5054909;28;20492;-64
2021/06/25 04:23:17;;;;;;;38.30;20.42;;;16.50;99.90;;;;;;5052417;28;20481;-64
2021/06/25 04:25:44;;;;;;;35.10;19.30;;;16.60;99.90;;;;;;5055357;28;20044;-64
2021/06/25 04:28:12;;;;;;;36.20;20.00;;;16.60;99.90;;;;;;5053861;28;20046;-64
2021/06/25 04:30:42;;;;;;;35.40;20.27;;;16.60;99.90;;;;;;5051873;28;20053;-64
2021/06/25 04:33:11;;;;;;;35.85;18.75;;;16.60;99.90;;;;;;5054632;28;20059;-64
2021/06/25 04:35:39;;;;;;;36.40;19.88;;;16.70;99.90;;;;;;5055485;28;20417;-64
2021/06/25 04:38:06;;;;;;;35.70;20.05;;;16.80;99.90;;;;;;5053455;28;20056;-64
2021/06/25 04:40:35;;;;;;;34.67;19.70;;;16.80;99.90;;;;;;5052628;28;20043;-64
2021/06/25 04:43:02;;;;;;;37.75;20.80;;;16.80;99.90;;;;;;5055625;28;20462;-64
2021/06/25 04:45:29;;;;;;;36.53;19.77;;;16.80;99.90;;;;;;5057482;28;20056;-64
2021/06/25 04:47:57;;;;;;;35.88;20.58;;;16.80;99.90;;;;;;5052850;28;20052;-64
2021/06/25 04:50:24;;;;;;;36.58;19.05;;;16.90;99.90;;;;;;5052328;28;21103;-64
2021/06/25 04:52:51;;;;;;;38.03;19.20;;;16.90;99.90;;;;;;5055835;28;20049;-64
2021/06/25 04:55:18;;;;;;;30.90;18.83;;;17.00;99.90;;;;;;5055791;28;20052;-64
2021/06/25 04:57:53;;;;;;;34.83;19.48;;;17.00;99.90;;;;;;5051558;28;20493;-64
2021/06/25 05:00:21;;;;;;;28.85;17.52;;;17.00;99.90;;;;;;5053360;28;20059;-65
2021/06/25 05:02:49;;;;;;;35.30;18.55;;;17.00;99.90;;;;;;5054754;28;20504;-65
2021/06/25 05:05:17;;;;;;;33.53;17.92;;;17.10;99.90;;;;;;5053798;28;20040;-65
2021/06/25 05:07:45;;;;;;;37.88;18.35;;;17.00;99.90;;;;;;5053133;28;20093;-65
2021/06/25 05:10:13;;;;;;;31.27;18.23;;;17.00;99.90;;;;;;5055191;28;20055;-65
2021/06/25 05:12:40;;;;;;;30.40;16.65;;;16.90;99.90;;;;;;5052251;28;20142;-65
2021/06/25 05:15:08;;;;;;;28.67;16.45;;;16.90;99.90;;;;;;5052290;28;20059;-65
2021/06/25 05:17:35;;;;;;;28.10;16.70;;;16.80;99.90;;;;;;5056705;28;20075;-65
2021/06/25 05:20:03;;;;;;;28.60;15.07;;;16.80;99.90;;;;;;5057459;28;20055;-65
2021/06/25 05:22:33;;;;;;;30.60;15.50;;;16.70;99.90;;;;;;5056406;28;20492;-65
2021/06/25 05:25:00;;;;;;;30.05;14.82;;;16.70;99.90;;;;;;5056831;28;20052;-65
2021/06/25 05:27:27;;;;;;;23.15;14.27;;;16.70;99.90;;;;;;5056681;28;20048;-65
2021/06/25 05:29:55;;;;;;;26.88;13.07;;;16.70;99.90;;;;;;5056854;28;20476;-65
2021/06/25 05:32:22;;;;;;;30.77;14.45;;;16.70;99.90;;;;;;5055376;28;20511;-66
2021/06/25 05:34:49;;;;;;;20.05;11.45;;;16.50;99.90;;;;;;5056913;28;20056;-66
2021/06/25 05:37:16;;;;;;;20.25;10.85;;;16.70;99.90;;;;;;5055055;28;20106;-66
2021/06/25 05:39:44;;;;;;;23.25;10.73;;;16.70;99.90;;;;;;5055526;28;20451;-66
2021/06/25 05:42:11;;;;;;;17.67;8.82;;;16.80;99.90;;;;;;5058285;28;20527;-67
2021/06/25 05:44:38;;;;;;;15.75;8.95;;;16.70;99.90;;;;;;5056458;28;20048;-66
2021/06/25 05:47:06;;;;;;;12.52;7.03;;;16.70;99.90;;;;;;5058329;28;20404;-66
2021/06/25 05:49:33;;;;;;;12.13;7.93;;;16.70;99.90;;;;;;5052770;28;20550;-66
2021/06/25 05:52:00;;;;;;;12.02;7.15;;;16.70;99.90;;;;;;5053426;28;20049;-66
2021/06/25 05:54:27;;;;;;;13.00;6.45;;;16.70;99.90;;;;;;5058485;28;20048;-66
2021/06/25 05:56:56;;;;;;;8.13;4.57;;;16.70;99.90;;;;;;5059442;28;20056;-67
2021/06/25 05:59:23;;;;;;;11.50;5.13;;;16.70;99.90;;;;;;5059826;28;20485;-66
2021/06/25 06:01:50;;;;;;;8.52;4.68;;;16.60;99.90;;;;;;5060905;28;20098;-66
2021/06/25 06:04:17;;;;;;;8.10;5.03;;;16.60;99.90;;;;;;5060415;28;20109;-66
2021/06/25 06:06:44;;;;;;;8.75;5.32;;;16.80;99.90;;;;;;5059068;28;20048;-66
2021/06/25 06:09:11;;;;;;;21.05;10.45;;;16.60;99.90;;;;;;5059549;28;20531;-67
2021/06/25 06:11:38;;;;;;;32.17;12.80;;;16.60;99.90;;;;;;5060029;28;20455;-66
2021/06/25 06:14:06;;;;;;;22.17;11.77;;;16.60;99.90;;;;;;5059279;28;20102;-67
2021/06/25 06:16:34;;;;;;;30.38;13.05;;;16.60;99.90;;;;;;5059438;28;20471;-66
2021/06/25 06:19:02;;;;;;;23.10;9.88;;;16.60;99.90;;;;;;5057715;28;20052;-66
2021/06/25 06:31:10;;;;;;;21.25;10.23;;;16.50;99.90;;;;;;5060570;28;20097;-66
2021/06/25 06:32:36;;;;;;;16.88;8.90;;;16.60;99.90;;;;;;5057292;28;20058;-67
2021/06/25 06:35:04;;;;;;;14.52;7.80;;;16.60;99.90;;;;;;5056617;28;20052;-66
2021/06/25 06:37:31;;;;;;;14.52;9.13;;;16.70;99.90;;;;;;5058215;28;20664;-66
2021/06/25 06:39:58;;;;;;;16.30;10.38;;;16.60;99.90;;;;;;5055157;28;20044;-66
2021/06/25 06:42:25;;;;;;;16.98;10.25;;;16.70;99.90;;;;;;5059875;28;20125;-66
2021/06/25 06:44:54;;;;;;;21.95;12.00;;;16.80;99.90;;;;;;5055242;28;20095;-66
2021/06/25 06:47:21;;;;;;;24.40;13.60;;;16.70;99.90;;;;;;5058085;28;20044;-66
2021/06/25 06:49:48;;;;;;;28.73;15.52;;;16.80;99.90;;;;;;5059658;28;20044;-67
2021/06/25 06:52:15;;;;;;;23.00;12.68;;;16.70;99.90;;;;;;5059517;28;20504;-66
2021/06/25 06:54:42;;;;;;;25.20;14.32;;;16.80;99.90;;;;;;5057651;28;20053;-66
2021/06/25 06:57:09;;;;;;;15.90;8.85;;;16.70;99.90;;;;;;5060554;28;20101;-67
2021/06/25 06:59:36;;;;;;;14.00;8.77;;;16.70;99.90;;;;;;5057597;28;20612;-66
2021/06/25 07:02:05;;;;;;;13.18;7.55;;;16.70;99.90;;;;;;5058046;28;20045;-67
2021/06/25 07:04:32;;;;;;;12.13;7.82;;;16.80;99.90;;;;;;5059493;28;20131;-67
2021/06/25 07:06:59;;;;;;;11.63;6.63;;;16.70;99.90;;;;;;5056930;28;20086;-66
2021/06/25 07:09:26;;;;;;;12.32;7.00;;;16.70;99.90;;;;;;5058470;28;20101;-66
2021/06/25 07:11:53;;;;;;;12.40;7.80;;;16.80;99.90;;;;;;5058889;28;20041;-66
2021/06/25 07:14:20;;;;;;;9.43;6.53;;;16.90;99.90;;;;;;5058990;28;20056;-67
2021/06/25 07:16:46;;;;;;;11.48;6.82;;;17.00;99.90;;;;;;5057584;28;20076;-66
2021/06/25 07:19:15;;;;;;;10.32;5.22;;;17.10;99.90;;;;;;5057520;28;20087;-67
2021/06/25 07:21:42;;;;;;;8.15;4.22;;;17.10;99.90;;;;;;5059484;28;20505;-67
2021/06/25 07:24:09;;;;;;;6.15;4.20;;;17.10;99.90;;;;;;5057165;28;20083;-66
2021/06/25 07:26:36;;;;;;;6.53;4.13;;;17.10;99.90;;;;;;5057153;28;20044;-67
2021/06/25 07:29:03;;;;;;;6.95;4.07;;;17.20;99.90;;;;;;5055515;28;20105;-66
2021/06/25 07:31:30;;;;;;;6.28;4.00;;;17.20;99.90;;;;;;5061380;28;20131;-67
2021/06/25 07:33:57;;;;;;;7.95;4.20;;;17.30;99.90;;;;;;5059627;28;20048;-66
2021/06/25 07:36:26;;;;;;;6.10;3.67;;;17.20;99.90;;;;;;5059474;28;20487;-66
2021/06/25 07:38:53;;;;;;;4.85;3.13;;;17.30;99.90;;;;;;5057614;28;20317;-67
2021/06/25 07:41:20;;;;;;;5.18;3.40;;;17.30;99.90;;;;;;5060881;28;20484;-66
2021/06/25 07:43:47;;;;;;;7.10;4.10;;;17.30;99.90;;;;;;5059715;28;20048;-66
2021/06/25 07:46:14;;;;;;;5.30;3.25;;;17.30;99.90;;;;;;5056738;28;20084;-66
2021/06/25 07:48:41;;;;;;;7.35;3.13;;;17.40;99.90;;;;;;5058013;28;21207;-66
2021/06/25 07:51:07;;;;;;;4.90;3.28;;;17.40;99.90;;;;;;5059422;28;20052;-66
2021/06/25 07:53:36;;;;;;;4.88;3.28;;;17.60;99.90;;;;;;5058136;28;20045;-66
2021/06/25 07:56:03;;;;;;;4.82;3.20;;;17.90;99.90;;;;;;5056719;28;20102;-66
2021/06/25 07:58:30;;;;;;;4.32;2.58;;;18.10;99.90;;;;;;5059952;28;20095;-66
2021/06/25 08:00:57;;;;;;;3.00;1.95;;;18.30;99.90;;;;;;5056782;28;20084;-66
2021/06/25 08:03:24;;;;;;;4.22;2.15;;;18.30;99.90;;;;;;5057971;28;21086;-66
2021/06/25 08:05:53;;;;;;;2.92;2.03;;;18.40;99.90;;;;;;5057437;28;20494;-66
2021/06/25 08:08:20;;;;;;;3.25;2.10;;;18.50;99.90;;;;;;5056291;28;20060;-66
2021/06/25 08:10:49;;;;;;;3.13;2.00;;;18.70;99.90;;;;;;5059655;28;20071;-66
2021/06/25 08:13:16;;;;;;;3.08;1.83;;;18.70;99.90;;;;;;5057292;28;20092;-66
2021/06/25 08:15:48;;;;;;;4.00;2.15;;;18.80;99.90;;;;;;5055631;28;20075;-66
2021/06/25 08:18:15;;;;;;;3.08;1.80;;;19.00;99.90;;;;;;5053954;28;20063;-66
2021/06/25 08:20:43;;;;;;;3.03;1.67;;;19.10;99.90;;;;;;5055966;28;20413;-66
2021/06/25 08:23:10;;;;;;;2.92;1.92;;;19.10;99.90;;;;;;5055900;28;20091;-66
2021/06/25 08:25:37;;;;;;;3.28;1.98;;;19.10;99.90;;;;;;5057592;28;20068;-66
2021/06/25 08:28:06;;;;;;;2.45;1.65;;;19.20;99.90;;;;;;5055409;28;20160;-66
2021/06/25 08:30:34;;;;;;;3.10;1.90;;;19.20;99.90;;;;;;5056667;28;20928;-66
2021/06/25 08:33:01;;;;;;;5.00;1.95;;;19.40;99.90;;;;;;5056664;28;20071;-66
2021/06/25 08:35:27;;;;;;;3.83;2.15;;;19.50;99.90;;;;;;5057099;28;20089;-66
2021/06/25 08:37:55;;;;;;;3.75;2.20;;;19.70;99.90;;;;;;5056246;28;20076;-66
2021/06/25 08:40:23;;;;;;;3.22;2.10;;;19.90;99.90;;;;;;5056326;28;20055;-66
2021/06/25 08:42:50;;;;;;;5.95;2.78;;;20.10;99.90;;;;;;5060022;28;20072;-66
2021/06/25 08:45:19;;;;;;;6.88;3.45;;;20.10;99.90;;;;;;5057663;28;20056;-66
2021/06/25 08:47:49;;;;;;;6.82;3.35;;;20.00;99.90;;;;;;5057256;28;20566;-66
2021/06/25 08:50:19;;;;;;;5.68;3.35;;;20.20;99.90;;;;;;5059841;28;20087;-66
2021/06/25 08:52:47;;;;;;;6.38;3.90;;;20.20;99.90;;;;;;5057358;28;20603;-66
2021/06/25 08:55:15;;;;;;;7.88;5.15;;;20.10;99.90;;;;;;5055789;28;20059;-66
2021/06/25 08:57:42;;;;;;;10.68;6.60;;;19.90;99.90;;;;;;5055171;28;20463;-66
2021/06/25 09:00:11;;;;;;;12.40;6.95;;;19.70;99.90;;;;;;5055450;28;20052;-66
2021/06/25 09:02:40;;;;;;;9.93;6.60;;;19.30;99.90;;;;;;5055848;28;20825;-65
2021/06/25 09:05:09;;;;;;;9.63;6.70;;;19.10;99.90;;;;;;5054228;28;20492;-66
2021/06/25 09:07:41;;;;;;;13.07;8.13;;;18.90;99.90;;;;;;5055559;28;20555;-66
2021/06/25 09:10:10;;;;;;;13.02;8.43;;;18.80;99.90;;;;;;5058751;28;20083;-65
2021/06/25 09:12:37;;;;;;;12.18;7.97;;;18.80;99.90;;;;;;5056225;28;20040;-66
2021/06/25 09:15:08;;;;;;;14.77;8.30;;;18.90;99.90;;;;;;5055242;28;20444;-66
2021/06/25 09:17:55;;;;;;;14.40;9.70;;;18.80;99.90;;;;;;5055748;28;20058;-66
2021/06/25 09:20:31;;;;;;;14.90;10.23;;;19.10;99.90;;;;;;5056835;28;20052;-66
2021/06/25 09:22:58;;;;;;;15.95;8.77;;;19.40;99.90;;;;;;5055851;28;20101;-66
2021/06/25 09:25:26;;;;;;;14.75;9.38;;;19.60;99.90;;;;;;5053140;28;20079;-66
2021/06/25 09:27:56;;;;;;;13.57;9.27;;;20.00;99.90;;;;;;5052126;28;20101;-66
2021/06/25 09:30:24;;;;;;;13.13;9.15;;;20.50;99.90;;;;;;5056123;28;20064;-66
2021/06/25 09:32:52;;;;;;;17.05;11.00;;;20.90;99.90;;;;;;5053880;28;20044;-66
2021/06/25 09:35:22;;;;;;;16.48;11.30;;;21.00;99.90;;;;;;5055648;28;21088;-66
2021/06/25 09:37:51;;;;;;;14.57;9.40;;;20.60;99.90;;;;;;5056174;28;20459;-66
2021/06/25 09:40:19;;;;;;;13.23;9.05;;;20.70;99.90;;;;;;5057262;28;20058;-66
2021/06/25 09:43:07;;;;;;;12.25;8.55;;;20.50;99.90;;;;;;5057343;28;20047;-66
2021/06/25 09:45:34;;;;;;;13.10;8.65;;;20.50;99.90;;;;;;5054585;28;20051;-66
2021/06/25 09:48:02;;;;;;;16.02;9.68;;;20.60;99.90;;;;;;5053863;28;20480;-66
2021/06/25 09:50:32;;;;;;;13.45;9.02;;;20.80;99.90;;;;;;5055327;28;20052;-66
2021/06/25 09:53:01;;;;;;;12.73;9.18;;;20.80;99.90;;;;;;5056890;28;20588;-66
2021/06/25 09:55:29;;;;;;;11.73;8.45;;;20.70;99.90;;;;;;5053352;28;20113;-66
2021/06/25 09:58:23;;;;;;;11.07;7.90;;;20.80;99.90;;;;;;5053978;28;20560;-66
2021/06/25 10:03:37;;;;;;;12.55;7.88;;;21.40;99.90;;;;;;5057666;28;20055;-66
2021/06/25 10:06:14;;;;;;;13.98;9.75;;;21.10;99.90;;;;;;5054741;28;20493;-66
2021/06/25 10:08:43;;;;;;;13.20;8.63;;;21.00;99.90;;;;;;5055933;28;20071;-66
2021/06/25 10:11:12;;;;;;;14.82;8.40;;;21.00;99.90;;;;;;5052016;28;20084;-66
2021/06/25 10:13:41;;;;;;;10.88;7.65;;;20.90;99.90;;;;;;5047911;28;20088;-66
2021/06/25 10:16:09;;;;;;;13.73;8.50;;;21.10;99.90;;;;;;5054459;28;20092;-66
2021/06/25 10:18:38;;;;;;;12.52;8.05;;;21.40;99.90;;;;;;5053523;28;20075;-66
2021/06/25 10:21:08;;;;;;;10.50;7.45;;;21.80;99.90;;;;;;5054495;28;20051;-66
2021/06/25 10:23:38;;;;;;;10.13;7.13;;;22.30;99.90;;;;;;5054189;28;20052;-66
2021/06/25 10:26:11;;;;;;;10.75;7.18;;;22.40;99.90;;;;;;5057638;28;20109;-66
2021/06/25 10:28:40;;;;;;;10.82;7.43;;;23.30;99.90;;;;;;5053919;28;20131;-66
2021/06/25 10:31:08;;;;;;;9.65;7.20;;;23.80;99.90;;;;;;5055857;28;20523;-66
2021/06/25 10:33:36;;;;;;;11.38;7.40;;;24.40;99.90;;;;;;5057157;28;20151;-66
2021/06/25 10:36:05;;;;;;;12.05;8.68;;;24.50;99.90;;;;;;5056780;28;20139;-66
2021/06/25 10:38:33;;;;;;;13.75;9.35;;;24.40;99.90;;;;;;5054544;28;20107;-66
2021/06/25 10:41:03;;;;;;;15.18;9.43;;;24.10;99.90;;;;;;5054185;28;20087;-66
2021/06/25 10:43:44;;;;;;;13.73;9.35;;;23.80;99.90;;;;;;5059450;28;20135;-66
2021/06/25 10:46:30;;;;;;;13.85;9.27;;;23.70;99.90;;;;;;5057857;28;20489;-66
2021/06/25 10:48:58;;;;;;;13.32;9.65;;;23.60;99.90;;;;;;5056710;28;20067;-66
2021/06/25 10:51:26;;;;;;;12.32;9.05;;;23.20;99.90;;;;;;5058179;28;20075;-66
2021/06/25 10:54:15;;;;;;;14.65;9.98;;;23.20;99.90;;;;;;5058048;28;20044;-66
2021/06/25 10:57:03;;;;;;;14.82;10.98;;;22.80;99.90;;;;;;5058213;28;20048;-65
2021/06/25 10:59:32;;;;;;;16.55;11.07;;;22.60;99.90;;;;;;5055379;28;20043;-66
2021/06/25 11:02:02;;;;;;;17.70;11.68;;;22.70;99.90;;;;;;5056666;28;20080;-65
2021/06/25 11:04:40;;;;;;;14.80;10.15;;;23.80;99.90;;;;;;5055725;28;20063;-65
2021/06/25 11:07:13;;;;;;;10.88;8.52;;;25.00;99.90;;;;;;5059586;28;20199;-65
2021/06/25 11:10:02;;;;;;;14.60;8.52;;;25.80;99.90;;;;;;5064320;28;20117;-66
2021/06/25 11:12:32;;;;;;;16.33;9.07;;;25.50;99.90;;;;;;5055896;28;20060;-66
2021/06/25 11:15:32;;;;;;;13.57;8.82;;;25.30;99.90;;;;;;5055962;28;20056;-66
2021/06/25 11:18:01;;;;;;;14.35;9.60;;;24.80;99.90;;;;;;5054149;28;20064;-66
2021/06/25 11:20:31;;;;;;;12.10;8.57;;;24.30;99.90;;;;;;5056864;28;20097;-66
2021/06/25 11:23:07;;;;;;;13.30;7.93;;;24.20;99.90;;;;;;5054662;28;20408;-65
2021/06/25 11:25:51;;;;;;;11.10;6.70;;;24.80;99.90;;;;;;5054405;28;20101;-66
2021/06/25 11:28:41;;;;;;;10.00;6.75;;;25.60;99.90;;;;;;5052722;28;20061;-66
2021/06/25 11:31:20;;;;;;;10.93;7.10;;;26.10;99.90;;;;;;5054743;28;20059;-66
2021/06/25 11:33:56;;;;;;;8.93;5.88;;;26.70;99.90;;;;;;5054091;28;20423;-66
2021/06/25 11:36:39;;;;;;;7.57;5.40;;;27.40;99.90;;;;;;5053795;28;20047;-66
2021/06/25 11:39:20;;;;;;;8.10;5.03;;;27.60;99.90;;;;;;5054736;28;20055;-66
2021/06/25 11:41:53;;;;;;;8.98;5.78;;;27.00;99.90;;;;;;5055034;28;20500;-66
2021/06/25 11:44:24;;;;;;;8.05;5.07;;;26.20;99.90;;;;;;5053806;28;20067;-66
2021/06/25 11:46:54;;;;;;;7.85;5.35;;;25.80;99.90;;;;;;5055860;28;20142;-66
2021/06/25 11:49:22;;;;;;;8.27;5.85;;;25.50;99.90;;;;;;5054741;28;20532;-66
2021/06/25 11:51:49;;;;;;;9.98;6.43;;;25.30;99.90;;;;;;5054013;28;20051;-66
2021/06/25 11:54:20;;;;;;;10.95;6.35;;;25.10;99.90;;;;;;5052585;28;20087;-66
2021/06/25 11:56:49;;;;;;;10.20;6.68;;;25.00;99.90;;;;;;5052566;28;20619;-66
2021/06/25 11:59:18;;;;;;;8.48;5.70;;;25.10;99.90;;;;;;5054428;28;20053;-66
2021/06/25 12:01:51;;;;;;;9.45;5.95;;;25.80;99.90;;;;;;5053585;28;20624;-66
2021/06/25 12:04:32;;;;;;;11.10;6.25;;;26.90;99.90;;;;;;5053599;28;20055;-66
2021/06/25 12:07:00;;;;;;;9.77;5.25;;;27.30;99.90;;;;;;5053635;28;20464;-66
2021/06/25 12:09:42;;;;;;;11.48;6.18;;;27.10;99.90;;;;;;5051570;28;20131;-66
2021/06/25 12:12:10;;;;;;;7.75;5.38;;;26.10;99.90;;;;;;5054169;28;20056;-66
2021/06/25 12:14:45;;;;;;;7.72;4.88;;;26.10;99.90;;;;;;5052492;28;20086;-66
2021/06/25 12:17:13;;;;;;;8.45;5.75;;;26.00;99.90;;;;;;5054373;28;20363;-65
2021/06/25 12:19:41;;;;;;;7.90;5.47;;;25.60;99.90;;;;;;5051542;28;20075;-66
2021/06/25 12:22:09;;;;;;;9.93;6.43;;;25.10;99.90;;;;;;5054902;28;20044;-66
2021/06/25 12:24:49;;;;;;;8.85;6.20;;;24.50;99.90;;;;;;5052805;28;20079;-66
2021/06/25 12:27:17;;;;;;;14.32;7.68;;;24.70;99.90;;;;;;5053992;28;20496;-66
2021/06/25 12:29:44;;;;;;;11.05;7.75;;;24.50;99.90;;;;;;5053108;28;20051;-65
2021/06/25 12:32:19;;;;;;;11.63;7.15;;;24.20;99.90;;;;;;5053296;28;20512;-65
2021/06/25 12:34:46;;;;;;;10.80;7.28;;;23.90;99.90;;;;;;5052699;28;20101;-65
2021/06/25 12:37:14;;;;;;;8.63;6.10;;;23.60;99.90;;;;;;5056752;28;20056;-65
2021/06/25 12:39:45;;;;;;;9.57;5.15;;;23.40;99.90;;;;;;5053955;28;20044;-65
2021/06/25 12:42:12;;;;;;;8.65;6.10;;;23.30;99.90;;;;;;5055360;28;20056;-65
2021/06/25 12:44:44;;;;;;;12.00;6.75;;;23.20;99.90;;;;;;5054076;28;21666;-65
2021/06/25 12:47:11;;;;;;;8.52;5.93;;;23.20;99.90;;;;;;5055513;28;20044;-65
2021/06/25 12:49:40;;;;;;;7.78;4.88;;;23.10;99.90;;;;;;5057897;28;20130;-65
2021/06/25 12:52:23;;;;;;;7.88;5.47;;;23.10;99.90;;;;;;5057872;28;20556;-66
2021/06/25 12:54:50;;;;;;;11.73;7.40;;;23.00;99.90;;;;;;5058076;28;20049;-65